sensor_id;sensor_type;location;lat;lon;timestamp;temperature;humidity
52615;DHT22;38508;53.158;6.614;2023-03-20T00:01:10;8.40;99.90
52615;DHT22;38508;53.158;6.614;2023-03-20T00:03:36;8.40;99.90
52615;DHT22;38508;53.158;6.614;2023-03-20T00:06:02;8.40;99.90
52615;DHT22;38508;53.158;6.614;2023-03-20T00:08:27;8.30;99.90
52615;DHT22;38508;53.158;6.614;2023-03-20T00:10:53;8.40;99.90
52615;DHT22;38508;53.158;6.614;2023-03-20T00:13:24;8.50;99.90
52615;DHT22;38508;53.158;6.614;2023-03-20T00:15:51;8.50;99.90
52615;DHT22;38508;53.158;6.614;2023-03-20T00:18:20;8.70;99.90
52615;DHT22;38508;53.158;6.614;2023-03-20T00:20:49;8.50;99.90
52615;DHT22;38508;53.158;6.614;2023-03-20T00:23:15;8.50;99.90
52615;DHT22;38508;53.158;6.614;2023-03-20T00:25:43;8.60;99.90
52615;DHT22;38508;53.158;6.614;2023-03-20T00:28:44;8.70;99.90
52615;DHT22;38508;53.158;6.614;2023-03-20T00:33:55;8.80;99.90
52615;DHT22;38508;53.158;6.614;2023-03-20T00:36:22;8.80;99.90
52615;DHT22;38508;53.158;6.614;2023-03-20T00:38:48;8.80;99.90
52615;DHT22;38508;53.158;6.614;2023-03-20T00:41:27;8.70;99.90
52615;DHT22;38508;53.158;6.614;2023-03-20T00:44:31;8.80;99.90
52615;DHT22;38508;53.158;6.614;2023-03-20T00:46:59;8.80;99.90
52615;DHT22;38508;53.158;6.614;2023-03-20T00:49:29;9.00;99.90
52615;DHT22;38508;53.158;6.614;2023-03-20T00:51:55;9.00;99.90
52615;DHT22;38508;53.158;6.614;2023-03-20T00:54:22;9.20;99.90
52615;DHT22;38508;53.158;6.614;2023-03-20T00:57:12;9.10;99.90
52615;DHT22;38508;53.158;6.614;2023-03-20T00:59:41;9.30;99.90
52615;DHT22;38508;53.158;6.614;2023-03-20T01:02:12;9.50;99.90
52615;DHT22;38508;53.158;6.614;2023-03-20T01:04:40;9.10;99.90
52615;DHT22;38508;53.158;6.614;2023-03-20T01:07:09;9.00;99.90
52615;DHT22;38508;53.158;6.614;2023-03-20T01:09:37;8.90;99.90
52615;DHT22;38508;53.158;6.614;2023-03-20T01:12:04;8.90;99.90
52615;DHT22;38508;53.158;6.614;2023-03-20T01:14:32;9.00;99.90
52615;DHT22;38508;53.158;6.614;2023-03-20T01:16:58;9.00;99.90
52615;DHT22;38508;53.158;6.614;2023-03-20T01:19:24;9.00;99.90
52615;DHT22;38508;53.158;6.614;2023-03-20T01:21:49;9.00;99.90
52615;DHT22;38508;53.158;6.614;2023-03-20T01:24:15;9.10;99.90
52615;DHT22;38508;53.158;6.614;2023-03-20T01:26:43;9.00;99.90
52615;DHT22;38508;53.158;6.614;2023-03-20T01:29:27;8.90;99.90
52615;DHT22;38508;53.158;6.614;2023-03-20T01:31:53;8.80;99.90
52615;DHT22;38508;53.158;6.614;2023-03-20T01:34:19;9.00;99.90
52615;DHT22;38508;53.158;6.614;2023-03-20T01:36:56;9.30;99.90
52615;DHT22;38508;53.158;6.614;2023-03-20T01:39:31;9.50;99.90
52615;DHT22;38508;53.158;6.614;2023-03-20T01:41:58;9.70;99.90
52615;DHT22;38508;53.158;6.614;2023-03-20T01:44:29;9.70;99.90
52615;DHT22;38508;53.158;6.614;2023-03-20T01:46:56;9.80;99.90
52615;DHT22;38508;53.158;6.614;2023-03-20T01:51:49;10.00;99.90
52615;DHT22;38508;53.158;6.614;2023-03-20T01:54:20;10.10;99.90
52615;DHT22;38508;53.158;6.614;2023-03-20T01:56:50;10.10;99.90
52615;DHT22;38508;53.158;6.614;2023-03-20T02:01:47;10.20;99.90
52615;DHT22;38508;53.158;6.614;2023-03-20T02:04:13;10.20;99.90
52615;DHT22;38508;53.158;6.614;2023-03-20T02:06:41;10.30;99.90
52615;DHT22;38508;53.158;6.614;2023-03-20T02:09:09;10.30;99.90
52615;DHT22;38508;53.158;6.614;2023-03-20T02:11:36;10.40;99.90
52615;DHT22;38508;53.158;6.614;2023-03-20T02:14:03;10.40;99.90
52615;DHT22;38508;53.158;6.614;2023-03-20T02:16:29;10.50;99.90
52615;DHT22;38508;53.158;6.614;2023-03-20T02:18:56;10.40;99.90
52615;DHT22;38508;53.158;6.614;2023-03-20T02:27:12;10.30;99.90
52615;DHT22;38508;53.158;6.614;2023-03-20T02:29:55;10.40;99.90
52615;DHT22;38508;53.158;6.614;2023-03-20T02:32:48;10.30;99.90
52615;DHT22;38508;53.158;6.614;2023-03-20T02:38:38;10.10;99.90
52615;DHT22;38508;53.158;6.614;2023-03-20T02:43:59;10.20;99.90
52615;DHT22;38508;53.158;6.614;2023-03-20T02:46:53;10.20;99.90
52615;DHT22;38508;53.158;6.614;2023-03-20T02:49:55;10.20;99.90
52615;DHT22;38508;53.158;6.614;2023-03-20T02:55:12;10.30;99.90
52615;DHT22;38508;53.158;6.614;2023-03-20T02:57:42;10.30;99.90
52615;DHT22;38508;53.158;6.614;2023-03-20T03:00:26;10.30;99.90
52615;DHT22;38508;53.158;6.614;2023-03-20T03:03:06;10.30;99.90
52615;DHT22;38508;53.158;6.614;2023-03-20T03:06:09;10.30;99.90
52615;DHT22;38508;53.158;6.614;2023-03-20T03:08:31;10.40;99.90
52615;DHT22;38508;53.158;6.614;2023-03-20T03:11:05;10.40;99.90
52615;DHT22;38508;53.158;6.614;2023-03-20T03:13:38;10.50;99.90
52615;DHT22;38508;53.158;6.614;2023-03-20T03:16:09;10.50;99.90
52615;DHT22;38508;53.158;6.614;2023-03-20T03:18:38;10.40;99.90
52615;DHT22;38508;53.158;6.614;2023-03-20T03:21:06;10.20;99.90
52615;DHT22;38508;53.158;6.614;2023-03-20T03:23:41;10.00;99.90
52615;DHT22;38508;53.158;6.614;2023-03-20T03:26:13;10.00;99.90
52615;DHT22;38508;53.158;6.614;2023-03-20T03:28:47;10.00;99.90
52615;DHT22;38508;53.158;6.614;2023-03-20T03:31:15;10.10;99.90
52615;DHT22;38508;53.158;6.614;2023-03-20T03:33:45;10.10;99.90
52615;DHT22;38508;53.158;6.614;2023-03-20T03:36:43;9.90;99.90
52615;DHT22;38508;53.158;6.614;2023-03-20T03:39:36;9.90;99.90
52615;DHT22;38508;53.158;6.614;2023-03-20T03:42:28;9.80;99.90
52615;DHT22;38508;53.158;6.614;2023-03-20T03:45:15;9.90;99.90
52615;DHT22;38508;53.158;6.614;2023-03-20T03:47:51;10.10;99.90
52615;DHT22;38508;53.158;6.614;2023-03-20T03:50:25;10.00;99.90
52615;DHT22;38508;53.158;6.614;2023-03-20T03:52:56;10.10;99.90
52615;DHT22;38508;53.158;6.614;2023-03-20T03:55:26;10.20;99.90
52615;DHT22;38508;53.158;6.614;2023-03-20T03:58:03;10.30;99.90
52615;DHT22;38508;53.158;6.614;2023-03-20T04:00:30;10.20;99.90
52615;DHT22;38508;53.158;6.614;2023-03-20T04:02:57;10.20;99.90
52615;DHT22;38508;53.158;6.614;2023-03-20T04:05:25;10.20;99.90
52615;DHT22;38508;53.158;6.614;2023-03-20T04:07:55;10.20;99.90
52615;DHT22;38508;53.158;6.614;2023-03-20T04:10:22;10.20;99.90
52615;DHT22;38508;53.158;6.614;2023-03-20T04:12:48;10.20;99.90
52615;DHT22;38508;53.158;6.614;2023-03-20T04:15:15;10.20;99.90
52615;DHT22;38508;53.158;6.614;2023-03-20T04:17:42;10.00;99.90
52615;DHT22;38508;53.158;6.614;2023-03-20T04:20:09;10.10;99.90
52615;DHT22;38508;53.158;6.614;2023-03-20T04:22:35;10.10;99.90
52615;DHT22;38508;53.158;6.614;2023-03-20T04:25:02;10.10;99.90
52615;DHT22;38508;53.158;6.614;2023-03-20T04:27:28;10.00;99.90
52615;DHT22;38508;53.158;6.614;2023-03-20T04:29:54;10.10;99.90
52615;DHT22;38508;53.158;6.614;2023-03-20T04:32:20;10.00;99.90
52615;DHT22;38508;53.158;6.614;2023-03-20T04:34:46;9.90;99.90
52615;DHT22;38508;53.158;6.614;2023-03-20T04:37:14;9.80;99.90
52615;DHT22;38508;53.158;6.614;2023-03-20T04:39:40;9.70;99.90
52615;DHT22;38508;53.158;6.614;2023-03-20T04:42:08;9.80;99.90
52615;DHT22;38508;53.158;6.614;2023-03-20T04:44:34;9.80;99.90
52615;DHT22;38508;53.158;6.614;2023-03-20T04:47:00;9.90;99.90
52615;DHT22;38508;53.158;6.614;2023-03-20T04:49:25;9.80;99.90
52615;DHT22;38508;53.158;6.614;2023-03-20T04:51:51;9.80;99.90
52615;DHT22;38508;53.158;6.614;2023-03-20T04:54:17;9.90;99.90
52615;DHT22;38508;53.158;6.614;2023-03-20T04:56:43;9.90;99.90
52615;DHT22;38508;53.158;6.614;2023-03-20T04:59:09;9.90;99.90
52615;DHT22;38508;53.158;6.614;2023-03-20T05:01:35;10.00;99.90
52615;DHT22;38508;53.158;6.614;2023-03-20T05:04:00;10.10;99.90
52615;DHT22;38508;53.158;6.614;2023-03-20T05:06:27;10.00;99.90
52615;DHT22;38508;53.158;6.614;2023-03-20T05:08:53;9.80;99.90
52615;DHT22;38508;53.158;6.614;2023-03-20T05:11:18;9.70;99.90
52615;DHT22;38508;53.158;6.614;2023-03-20T05:13:44;9.70;99.90
52615;DHT22;38508;53.158;6.614;2023-03-20T05:16:10;9.60;99.90
52615;DHT22;38508;53.158;6.614;2023-03-20T05:18:36;9.50;99.90
52615;DHT22;38508;53.158;6.614;2023-03-20T05:21:01;9.50;99.90
52615;DHT22;38508;53.158;6.614;2023-03-20T05:23:29;9.50;99.90
52615;DHT22;38508;53.158;6.614;2023-03-20T05:25:55;9.60;99.90
52615;DHT22;38508;53.158;6.614;2023-03-20T05:28:20;9.60;99.90
52615;DHT22;38508;53.158;6.614;2023-03-20T05:30:46;9.50;99.90
52615;DHT22;38508;53.158;6.614;2023-03-20T05:33:12;9.60;99.90
52615;DHT22;38508;53.158;6.614;2023-03-20T05:35:37;9.60;99.90
52615;DHT22;38508;53.158;6.614;2023-03-20T05:38:03;9.50;99.90
52615;DHT22;38508;53.158;6.614;2023-03-20T05:40:29;9.50;99.90
52615;DHT22;38508;53.158;6.614;2023-03-20T05:42:55;9.40;99.90
52615;DHT22;38508;53.158;6.614;2023-03-20T05:45:20;9.40;99.90
52615;DHT22;38508;53.158;6.614;2023-03-20T05:47:46;9.50;99.90
52615;DHT22;38508;53.158;6.614;2023-03-20T05:50:12;9.50;99.90
52615;DHT22;38508;53.158;6.614;2023-03-20T05:52:38;9.60;99.90
52615;DHT22;38508;53.158;6.614;2023-03-20T05:55:04;9.50;99.90
52615;DHT22;38508;53.158;6.614;2023-03-20T05:57:30;9.50;99.90
52615;DHT22;38508;53.158;6.614;2023-03-20T05:59:56;9.50;99.90
52615;DHT22;38508;53.158;6.614;2023-03-20T06:02:21;9.50;99.90
52615;DHT22;38508;53.158;6.614;2023-03-20T06:04:47;9.40;99.90
52615;DHT22;38508;53.158;6.614;2023-03-20T06:07:13;9.40;99.90
52615;DHT22;38508;53.158;6.614;2023-03-20T06:09:38;9.40;99.90
52615;DHT22;38508;53.158;6.614;2023-03-20T06:12:05;9.50;99.90
52615;DHT22;38508;53.158;6.614;2023-03-20T06:14:30;9.60;99.90
52615;DHT22;38508;53.158;6.614;2023-03-20T06:16:56;9.70;99.90
52615;DHT22;38508;53.158;6.614;2023-03-20T06:19:22;9.70;99.90
52615;DHT22;38508;53.158;6.614;2023-03-20T06:21:49;9.80;99.90
52615;DHT22;38508;53.158;6.614;2023-03-20T06:24:15;9.80;99.90
52615;DHT22;38508;53.158;6.614;2023-03-20T06:26:41;9.80;99.90
52615;DHT22;38508;53.158;6.614;2023-03-20T06:29:07;9.70;99.90
52615;DHT22;38508;53.158;6.614;2023-03-20T06:31:33;9.80;99.90
52615;DHT22;38508;53.158;6.614;2023-03-20T06:33:59;9.80;99.90
52615;DHT22;38508;53.158;6.614;2023-03-20T06:36:24;9.90;99.90
52615;DHT22;38508;53.158;6.614;2023-03-20T06:38:50;10.00;99.90
52615;DHT22;38508;53.158;6.614;2023-03-20T06:41:16;9.80;99.90
52615;DHT22;38508;53.158;6.614;2023-03-20T06:43:42;9.80;99.90
52615;DHT22;38508;53.158;6.614;2023-03-20T06:46:08;9.90;99.90
52615;DHT22;38508;53.158;6.614;2023-03-20T06:48:34;10.00;99.90
52615;DHT22;38508;53.158;6.614;2023-03-20T06:51:00;10.10;99.90
52615;DHT22;38508;53.158;6.614;2023-03-20T06:53:26;10.10;99.90
52615;DHT22;38508;53.158;6.614;2023-03-20T06:55:52;10.10;99.90
52615;DHT22;38508;53.158;6.614;2023-03-20T06:58:19;10.20;99.90
52615;DHT22;38508;53.158;6.614;2023-03-20T07:00:45;10.20;99.90
52615;DHT22;38508;53.158;6.614;2023-03-20T07:03:14;10.00;99.90
52615;DHT22;38508;53.158;6.614;2023-03-20T07:05:41;10.00;99.90
52615;DHT22;38508;53.158;6.614;2023-03-20T07:08:07;10.10;99.90
52615;DHT22;38508;53.158;6.614;2023-03-20T07:10:33;10.00;99.90
52615;DHT22;38508;53.158;6.614;2023-03-20T07:12:59;10.00;99.90
52615;DHT22;38508;53.158;6.614;2023-03-20T07:15:26;9.90;99.90
52615;DHT22;38508;53.158;6.614;2023-03-20T07:17:51;9.70;99.90
52615;DHT22;38508;53.158;6.614;2023-03-20T07:20:18;9.80;99.90
52615;DHT22;38508;53.158;6.614;2023-03-20T07:22:44;9.90;99.90
52615;DHT22;38508;53.158;6.614;2023-03-20T07:25:09;10.00;99.90
52615;DHT22;38508;53.158;6.614;2023-03-20T07:27:35;10.00;99.90
52615;DHT22;38508;53.158;6.614;2023-03-20T07:30:03;10.10;99.90
52615;DHT22;38508;53.158;6.614;2023-03-20T07:32:29;10.10;99.90
52615;DHT22;38508;53.158;6.614;2023-03-20T07:34:55;10.00;99.90
52615;DHT22;38508;53.158;6.614;2023-03-20T07:37:20;9.90;99.90
52615;DHT22;38508;53.158;6.614;2023-03-20T07:39:46;10.10;99.90
52615;DHT22;38508;53.158;6.614;2023-03-20T07:42:12;10.10;99.90
52615;DHT22;38508;53.158;6.614;2023-03-20T07:44:40;10.10;99.90
52615;DHT22;38508;53.158;6.614;2023-03-20T07:47:06;10.10;99.90
52615;DHT22;38508;53.158;6.614;2023-03-20T07:49:32;10.10;99.90
52615;DHT22;38508;53.158;6.614;2023-03-20T07:51:58;10.30;99.90
52615;DHT22;38508;53.158;6.614;2023-03-20T07:54:24;10.40;99.90
52615;DHT22;38508;53.158;6.614;2023-03-20T07:56:50;10.50;99.90
52615;DHT22;38508;53.158;6.614;2023-03-20T07:59:16;10.40;99.90
52615;DHT22;38508;53.158;6.614;2023-03-20T08:01:42;10.30;99.90
52615;DHT22;38508;53.158;6.614;2023-03-20T08:04:08;10.20;99.90
52615;DHT22;38508;53.158;6.614;2023-03-20T08:06:34;10.30;99.90
52615;DHT22;38508;53.158;6.614;2023-03-20T08:09:00;10.50;99.90
52615;DHT22;38508;53.158;6.614;2023-03-20T08:11:26;10.50;99.90
52615;DHT22;38508;53.158;6.614;2023-03-20T08:13:51;10.50;99.90
52615;DHT22;38508;53.158;6.614;2023-03-20T08:16:17;10.80;99.90
52615;DHT22;38508;53.158;6.614;2023-03-20T08:18:43;10.80;99.90
52615;DHT22;38508;53.158;6.614;2023-03-20T08:21:09;10.80;99.90
52615;DHT22;38508;53.158;6.614;2023-03-20T08:23:34;10.60;99.90
52615;DHT22;38508;53.158;6.614;2023-03-20T08:26:00;10.50;99.90
52615;DHT22;38508;53.158;6.614;2023-03-20T08:28:26;10.50;99.90
52615;DHT22;38508;53.158;6.614;2023-03-20T08:30:52;10.60;99.90
52615;DHT22;38508;53.158;6.614;2023-03-20T08:33:17;10.70;99.90
52615;DHT22;38508;53.158;6.614;2023-03-20T08:35:53;10.60;99.90
52615;DHT22;38508;53.158;6.614;2023-03-20T08:38:20;10.70;99.90
52615;DHT22;38508;53.158;6.614;2023-03-20T08:40:45;10.70;99.90
52615;DHT22;38508;53.158;6.614;2023-03-20T08:43:11;10.60;99.90
52615;DHT22;38508;53.158;6.614;2023-03-20T08:45:37;10.80;99.90
52615;DHT22;38508;53.158;6.614;2023-03-20T08:48:03;10.90;99.90
52615;DHT22;38508;53.158;6.614;2023-03-20T08:50:29;10.80;99.90
52615;DHT22;38508;53.158;6.614;2023-03-20T08:52:54;10.50;99.90
52615;DHT22;38508;53.158;6.614;2023-03-20T08:55:20;10.60;99.90
52615;DHT22;38508;53.158;6.614;2023-03-20T08:57:46;10.80;99.90
52615;DHT22;38508;53.158;6.614;2023-03-20T09:00:13;11.00;99.90
52615;DHT22;38508;53.158;6.614;2023-03-20T09:02:40;10.90;99.90
52615;DHT22;38508;53.158;6.614;2023-03-20T09:05:07;10.80;99.90
52615;DHT22;38508;53.158;6.614;2023-03-20T09:07:33;11.00;99.90
52615;DHT22;38508;53.158;6.614;2023-03-20T09:09:59;11.20;99.90
52615;DHT22;38508;53.158;6.614;2023-03-20T09:12:24;11.20;99.90
52615;DHT22;38508;53.158;6.614;2023-03-20T09:14:50;11.40;99.90
52615;DHT22;38508;53.158;6.614;2023-03-20T09:17:16;11.30;99.90
52615;DHT22;38508;53.158;6.614;2023-03-20T09:19:41;11.40;99.90
52615;DHT22;38508;53.158;6.614;2023-03-20T09:22:12;11.50;99.90
52615;DHT22;38508;53.158;6.614;2023-03-20T09:24:38;11.50;99.90
52615;DHT22;38508;53.158;6.614;2023-03-20T09:27:04;11.40;99.90
52615;DHT22;38508;53.158;6.614;2023-03-20T09:29:30;11.40;99.90
52615;DHT22;38508;53.158;6.614;2023-03-20T09:31:55;11.40;99.90
52615;DHT22;38508;53.158;6.614;2023-03-20T09:34:21;11.40;99.90
52615;DHT22;38508;53.158;6.614;2023-03-20T09:36:48;11.40;99.90
52615;DHT22;38508;53.158;6.614;2023-03-20T09:39:15;11.40;99.90
52615;DHT22;38508;53.158;6.614;2023-03-20T09:41:45;11.40;99.90
52615;DHT22;38508;53.158;6.614;2023-03-20T09:47:12;11.10;99.90
52615;DHT22;38508;53.158;6.614;2023-03-20T09:55:11;11.30;99.90
52615;DHT22;38508;53.158;6.614;2023-03-20T09:57:43;11.20;99.90
52615;DHT22;38508;53.158;6.614;2023-03-20T10:00:27;11.20;99.90
52615;DHT22;38508;53.158;6.614;2023-03-20T10:03:19;11.40;99.90
52615;DHT22;38508;53.158;6.614;2023-03-20T10:08:17;11.10;99.90
52615;DHT22;38508;53.158;6.614;2023-03-20T10:11:01;11.00;99.90
52615;DHT22;38508;53.158;6.614;2023-03-20T10:16:43;11.40;99.90
52615;DHT22;38508;53.158;6.614;2023-03-20T10:24:39;11.30;99.90
52615;DHT22;38508;53.158;6.614;2023-03-20T10:27:49;11.30;99.90
52615;DHT22;38508;53.158;6.614;2023-03-20T10:30:25;11.40;99.90
52615;DHT22;38508;53.158;6.614;2023-03-20T10:41:38;11.20;99.90
52615;DHT22;38508;53.158;6.614;2023-03-20T10:44:13;11.10;99.90
52615;DHT22;38508;53.158;6.614;2023-03-20T10:46:43;11.10;99.90
52615;DHT22;38508;53.158;6.614;2023-03-20T10:49:24;11.30;99.90
52615;DHT22;38508;53.158;6.614;2023-03-20T10:51:58;11.30;99.90
52615;DHT22;38508;53.158;6.614;2023-03-20T10:54:37;11.10;99.90
52615;DHT22;38508;53.158;6.614;2023-03-20T10:57:12;11.00;99.90
52615;DHT22;38508;53.158;6.614;2023-03-20T10:59:40;11.30;99.90
52615;DHT22;38508;53.158;6.614;2023-03-20T11:02:14;11.30;99.90
52615;DHT22;38508;53.158;6.614;2023-03-20T11:04:41;11.20;99.90
52615;DHT22;38508;53.158;6.614;2023-03-20T11:07:23;11.00;99.90
52615;DHT22;38508;53.158;6.614;2023-03-20T11:10:06;11.30;99.90
52615;DHT22;38508;53.158;6.614;2023-03-20T11:12:35;11.10;99.90
52615;DHT22;38508;53.158;6.614;2023-03-20T11:17:37;10.90;99.90
52615;DHT22;38508;53.158;6.614;2023-03-20T11:20:04;10.80;99.90
52615;DHT22;38508;53.158;6.614;2023-03-20T11:22:31;11.00;99.90
52615;DHT22;38508;53.158;6.614;2023-03-20T11:24:59;11.10;99.90
52615;DHT22;38508;53.158;6.614;2023-03-20T11:27:32;11.00;99.90
52615;DHT22;38508;53.158;6.614;2023-03-20T11:30:04;10.90;99.90
52615;DHT22;38508;53.158;6.614;2023-03-20T11:32:45;10.80;99.90
52615;DHT22;38508;53.158;6.614;2023-03-20T11:37:54;10.70;99.90
52615;DHT22;38508;53.158;6.614;2023-03-20T11:40:32;10.80;99.90
52615;DHT22;38508;53.158;6.614;2023-03-20T11:45:34;11.40;99.90
52615;DHT22;38508;53.158;6.614;2023-03-20T11:48:01;11.40;99.90
52615;DHT22;38508;53.158;6.614;2023-03-20T11:50:36;11.30;99.90
52615;DHT22;38508;53.158;6.614;2023-03-20T11:53:16;11.20;99.90
52615;DHT22;38508;53.158;6.614;2023-03-20T11:56:50;11.10;99.90
52615;DHT22;38508;53.158;6.614;2023-03-20T11:58:57;11.20;99.90
52615;DHT22;38508;53.158;6.614;2023-03-20T12:01:25;11.10;99.90
52615;DHT22;38508;53.158;6.614;2023-03-20T12:04:03;10.70;99.90
52615;DHT22;38508;53.158;6.614;2023-03-20T12:12:27;10.80;99.90
52615;DHT22;38508;53.158;6.614;2023-03-20T12:18:01;10.70;99.90
52615;DHT22;38508;53.158;6.614;2023-03-20T12:23:39;10.40;99.90
52615;DHT22;38508;53.158;6.614;2023-03-20T12:26:13;10.50;99.90
52615;DHT22;38508;53.158;6.614;2023-03-20T12:32:00;10.70;99.90
52615;DHT22;38508;53.158;6.614;2023-03-20T12:35:01;10.90;99.90
52615;DHT22;38508;53.158;6.614;2023-03-20T12:37:29;11.00;99.90
52615;DHT22;38508;53.158;6.614;2023-03-20T12:39:58;10.90;99.90
52615;DHT22;38508;53.158;6.614;2023-03-20T12:45:24;12.40;99.90
52615;DHT22;38508;53.158;6.614;2023-03-20T13:01:20;13.60;99.90
52615;DHT22;38508;53.158;6.614;2023-03-20T13:10:04;14.20;99.90
52615;DHT22;38508;53.158;6.614;2023-03-20T13:18:46;12.90;99.90
52615;DHT22;38508;53.158;6.614;2023-03-20T13:21:32;13.10;99.90
52615;DHT22;38508;53.158;6.614;2023-03-20T13:37:18;16.30;99.90
52615;DHT22;38508;53.158;6.614;2023-03-20T13:39:55;15.50;99.90
52615;DHT22;38508;53.158;6.614;2023-03-20T13:42:28;15.90;99.90
52615;DHT22;38508;53.158;6.614;2023-03-20T13:45:01;15.90;99.90
52615;DHT22;38508;53.158;6.614;2023-03-20T13:47:30;15.00;99.90
52615;DHT22;38508;53.158;6.614;2023-03-20T13:52:57;14.80;99.90
52615;DHT22;38508;53.158;6.614;2023-03-20T13:55:46;15.70;99.90
52615;DHT22;38508;53.158;6.614;2023-03-20T13:58:19;15.90;99.90
52615;DHT22;38508;53.158;6.614;2023-03-20T14:01:10;16.20;99.90
52615;DHT22;38508;53.158;6.614;2023-03-20T14:03:44;16.30;99.90
52615;DHT22;38508;53.158;6.614;2023-03-20T14:08:56;16.00;99.90
52615;DHT22;38508;53.158;6.614;2023-03-20T14:14:05;16.10;99.90
52615;DHT22;38508;53.158;6.614;2023-03-20T14:16:32;14.70;99.90
52615;DHT22;38508;53.158;6.614;2023-03-20T14:19:17;13.60;99.90
52615;DHT22;38508;53.158;6.614;2023-03-20T14:21:50;12.80;99.90
52615;DHT22;38508;53.158;6.614;2023-03-20T14:24:18;12.00;99.90
52615;DHT22;38508;53.158;6.614;2023-03-20T14:26:50;11.70;99.90
52615;DHT22;38508;53.158;6.614;2023-03-20T14:31:47;11.70;99.90
52615;DHT22;38508;53.158;6.614;2023-03-20T14:34:15;11.60;99.90
52615;DHT22;38508;53.158;6.614;2023-03-20T14:36:59;11.40;99.90
52615;DHT22;38508;53.158;6.614;2023-03-20T14:39:46;11.30;99.90
52615;DHT22;38508;53.158;6.614;2023-03-20T14:50:24;10.90;99.90
52615;DHT22;38508;53.158;6.614;2023-03-20T14:57:49;10.80;99.90
52615;DHT22;38508;53.158;6.614;2023-03-20T15:00:23;10.80;99.90
52615;DHT22;38508;53.158;6.614;2023-03-20T15:05:29;10.80;99.90
52615;DHT22;38508;53.158;6.614;2023-03-20T15:08:13;10.70;99.90
52615;DHT22;38508;53.158;6.614;2023-03-20T15:10:48;10.90;99.90
52615;DHT22;38508;53.158;6.614;2023-03-20T15:13:15;10.80;99.90
52615;DHT22;38508;53.158;6.614;2023-03-20T15:18:21;10.80;99.90
52615;DHT22;38508;53.158;6.614;2023-03-20T15:20:47;10.80;99.90
52615;DHT22;38508;53.158;6.614;2023-03-20T15:23:13;11.00;99.90
52615;DHT22;38508;53.158;6.614;2023-03-20T15:25:41;11.10;99.90
52615;DHT22;38508;53.158;6.614;2023-03-20T15:28:19;10.90;99.90
52615;DHT22;38508;53.158;6.614;2023-03-20T15:30:48;10.80;99.90
52615;DHT22;38508;53.158;6.614;2023-03-20T15:33:41;10.80;99.90
52615;DHT22;38508;53.158;6.614;2023-03-20T15:36:28;10.80;99.90
52615;DHT22;38508;53.158;6.614;2023-03-20T15:39:12;10.90;99.90
52615;DHT22;38508;53.158;6.614;2023-03-20T15:41:42;10.90;99.90
52615;DHT22;38508;53.158;6.614;2023-03-20T15:49:24;11.10;99.90
52615;DHT22;38508;53.158;6.614;2023-03-20T15:51:51;11.20;99.90
52615;DHT22;38508;53.158;6.614;2023-03-20T15:54:18;11.00;99.90
52615;DHT22;38508;53.158;6.614;2023-03-20T15:56:46;10.90;99.90
52615;DHT22;38508;53.158;6.614;2023-03-20T15:59:14;10.80;99.90
52615;DHT22;38508;53.158;6.614;2023-03-20T16:01:46;11.00;99.90
52615;DHT22;38508;53.158;6.614;2023-03-20T16:04:15;10.90;99.90
52615;DHT22;38508;53.158;6.614;2023-03-20T16:06:59;10.90;99.90
52615;DHT22;38508;53.158;6.614;2023-03-20T16:09:26;11.00;99.90
52615;DHT22;38508;53.158;6.614;2023-03-20T16:12:00;11.10;99.90
52615;DHT22;38508;53.158;6.614;2023-03-20T16:14:31;11.00;99.90
52615;DHT22;38508;53.158;6.614;2023-03-20T16:16:59;11.20;99.90
52615;DHT22;38508;53.158;6.614;2023-03-20T16:19:27;11.30;99.90
52615;DHT22;38508;53.158;6.614;2023-03-20T16:21:59;11.40;99.90
52615;DHT22;38508;53.158;6.614;2023-03-20T16:24:29;11.50;99.90
52615;DHT22;38508;53.158;6.614;2023-03-20T16:26:56;11.20;99.90
52615;DHT22;38508;53.158;6.614;2023-03-20T16:29:23;11.30;99.90
52615;DHT22;38508;53.158;6.614;2023-03-20T16:32:06;11.40;99.90
52615;DHT22;38508;53.158;6.614;2023-03-20T16:34:36;11.40;99.90
52615;DHT22;38508;53.158;6.614;2023-03-20T16:37:07;11.50;99.90
52615;DHT22;38508;53.158;6.614;2023-03-20T16:39:33;11.30;99.90
52615;DHT22;38508;53.158;6.614;2023-03-20T16:42:21;11.30;99.90
52615;DHT22;38508;53.158;6.614;2023-03-20T16:44:55;11.30;99.90
52615;DHT22;38508;53.158;6.614;2023-03-20T16:47:24;11.40;99.90
52615;DHT22;38508;53.158;6.614;2023-03-20T16:50:16;11.50;99.90
52615;DHT22;38508;53.158;6.614;2023-03-20T16:52:47;11.30;99.90
52615;DHT22;38508;53.158;6.614;2023-03-20T16:55:28;11.30;99.90
52615;DHT22;38508;53.158;6.614;2023-03-20T16:58:03;11.20;99.90
52615;DHT22;38508;53.158;6.614;2023-03-20T17:00:32;11.30;99.90
52615;DHT22;38508;53.158;6.614;2023-03-20T17:03:14;11.30;99.90
52615;DHT22;38508;53.158;6.614;2023-03-20T17:05:54;11.30;99.90
52615;DHT22;38508;53.158;6.614;2023-03-20T17:11:02;11.20;99.90
52615;DHT22;38508;53.158;6.614;2023-03-20T17:13:33;11.20;99.90
52615;DHT22;38508;53.158;6.614;2023-03-20T17:16:01;11.10;99.90
52615;DHT22;38508;53.158;6.614;2023-03-20T17:18:28;11.20;99.90
52615;DHT22;38508;53.158;6.614;2023-03-20T17:20:53;11.30;99.90
52615;DHT22;38508;53.158;6.614;2023-03-20T17:23:21;11.30;99.90
52615;DHT22;38508;53.158;6.614;2023-03-20T17:25:49;11.40;99.90
52615;DHT22;38508;53.158;6.614;2023-03-20T17:28:17;11.20;99.90
52615;DHT22;38508;53.158;6.614;2023-03-20T17:30:45;11.30;99.90
52615;DHT22;38508;53.158;6.614;2023-03-20T17:33:13;11.40;99.90
52615;DHT22;38508;53.158;6.614;2023-03-20T17:35:39;11.40;99.90
52615;DHT22;38508;53.158;6.614;2023-03-20T17:38:05;11.40;99.90
52615;DHT22;38508;53.158;6.614;2023-03-20T17:40:31;11.30;99.90
52615;DHT22;38508;53.158;6.614;2023-03-20T17:42:56;11.20;99.90
52615;DHT22;38508;53.158;6.614;2023-03-20T17:45:22;11.30;99.90
52615;DHT22;38508;53.158;6.614;2023-03-20T17:47:48;11.30;99.90
52615;DHT22;38508;53.158;6.614;2023-03-20T17:50:21;11.40;99.90
52615;DHT22;38508;53.158;6.614;2023-03-20T17:52:49;11.30;99.90
52615;DHT22;38508;53.158;6.614;2023-03-20T17:55:15;11.10;99.90
52615;DHT22;38508;53.158;6.614;2023-03-20T17:57:41;11.00;99.90
52615;DHT22;38508;53.158;6.614;2023-03-20T18:00:27;11.00;99.90
52615;DHT22;38508;53.158;6.614;2023-03-20T18:02:52;11.00;99.90
52615;DHT22;38508;53.158;6.614;2023-03-20T18:05:18;10.90;99.90
52615;DHT22;38508;53.158;6.614;2023-03-20T18:07:44;10.70;99.90
52615;DHT22;38508;53.158;6.614;2023-03-20T18:10:22;10.70;99.90
52615;DHT22;38508;53.158;6.614;2023-03-20T18:12:49;10.80;99.90
52615;DHT22;38508;53.158;6.614;2023-03-20T18:15:15;10.90;99.90
52615;DHT22;38508;53.158;6.614;2023-03-20T18:17:41;10.90;99.90
52615;DHT22;38508;53.158;6.614;2023-03-20T18:20:34;11.00;99.90
52615;DHT22;38508;53.158;6.614;2023-03-20T18:22:59;10.90;99.90
52615;DHT22;38508;53.158;6.614;2023-03-20T18:25:25;11.00;99.90
52615;DHT22;38508;53.158;6.614;2023-03-20T18:27:52;10.70;99.90